This is the latest recevied weather packets stored in our database for station/object DC1RS. If no packets are shown the sender has not sent any weather packets the latest 10 day(s).
| Time | Temp. | Humidity | Pressure | Rain* | Wind** | Luminosity | Snow |
|---|---|---|---|---|---|---|---|
| 1777469091 | 18.33° C | 27% | 1021.8 hPa | 0 mm | - | 688 W/m² | - |
| 1777467470 | 18.33° C | 28% | 1022 hPa | 0 mm | - | 741 W/m² | - |
| 1777465851 | 18.33° C | 28% | 1021.9 hPa | 0 mm | - | 779 W/m² | - |
| 1777464291 | 18.33° C | 27% | 1021.9 hPa | 0 mm | - | 806 W/m² | - |
| 1777462986 | 19.44° C | 27% | 1021.9 hPa | 0 mm | - | 823 W/m² | - |
| 1777462371 | 18.89° C | 28% | 1022 hPa | 0 mm | - | 823 W/m² | - |
| 1777460751 | 18.33° C | 30% | 1022.1 hPa | 0 mm | - | 824 W/m² | - |
| 1777459161 | 18.33° C | 31% | 1022.5 hPa | 0 mm | - | 815 W/m² | - |
| 1777459001 | 18.33° C | 29% | 1022.5 hPa | 0 mm | - | 812 W/m² | - |
| 1777458201 | 17.78° C | 31% | 1022.6 hPa | 0 mm | - | 805 W/m² | - |
| 1777456611 | 17.22° C | 31% | 1022.8 hPa | 0 mm | - | 778 W/m² | - |
| 1777455321 | 17.22° C | 33% | 1022.6 hPa | 0 mm | - | 750 W/m² | - |
| 1777454061 | 17.22° C | 31% | 1022.5 hPa | 0 mm | - | 716 W/m² | - |
| 1777452441 | 16.67° C | 31% | 1022.7 hPa | 0 mm | - | 663 W/m² | - |
| 1777451811 | 16.67° C | 34% | 1022.5 hPa | 0 mm | - | 640 W/m² | - |
| 1777450221 | 16.11° C | 31% | 1022.5 hPa | 0 mm | - | 577 W/m² | - |
| 1777448690 | 14.44° C | 32% | 1022.6 hPa | 0 mm | - | 508 W/m² | - |
| 1777446912 | 13.89° C | 33% | 1022.6 hPa | 0 mm | - | 410 W/m² | - |
| 1777445320 | 12.78° C | 34% | 1022.6 hPa | 0 mm | - | 325 W/m² | - |
| 1777443561 | 12.22° C | 35% | 1022.4 hPa | 0 mm | - | 236 W/m² | - |
| 1777441971 | 11.67° C | 41% | 1022.3 hPa | 0 mm | - | 152 W/m² | - |
| 1777440381 | 10° C | 53% | 1021.9 hPa | 0 mm | - | 86 W/m² | - |
| 1777439090 | 9.44° C | 59% | 1021.7 hPa | 0 mm | - | 51 W/m² | - |
| 1777437501 | 8.89° C | 61% | 1021.5 hPa | 0 mm | - | 29 W/m² | - |
| 1777435311 | 7.78° C | 64% | 1020.7 hPa | 0 mm | - | 7 W/m² | - |
* Rain latest hour (hover to see other rain measurements)
** Current wind speed in m/s (hover to see current wind gust speed)